createdAt,value
2022-08-20T00:00:22.877Z,101289.47
2022-08-20T00:02:52.683Z,101284.28
2022-08-20T00:05:24.609Z,101279.94
2022-08-20T00:07:52.633Z,101280.19
2022-08-20T00:10:20.895Z,101279.13
2022-08-20T00:12:50.093Z,101277.47
2022-08-20T00:15:21.712Z,101283.91
2022-08-20T00:17:50.582Z,101279.59
2022-08-20T00:20:19.977Z,101275.25
2022-08-20T00:22:48.104Z,101271.50
2022-08-20T00:25:16.513Z,101273.13
2022-08-20T00:27:44.441Z,101271.25
2022-08-20T00:30:14.136Z,101272.28
2022-08-20T00:32:48.277Z,101273.13
2022-08-20T00:35:16.868Z,101273.38
2022-08-20T00:37:44.880Z,101283.09
2022-08-20T00:40:22.652Z,101286.88
2022-08-20T00:42:55.357Z,101287.34
2022-08-20T00:45:22.980Z,101276.19
2022-08-20T00:47:51.988Z,101286.88
2022-08-20T00:50:24.325Z,101287.56
2022-08-20T00:52:53.830Z,101284.50
2022-08-20T00:55:29.630Z,101278.72
2022-08-20T00:58:03.893Z,101280.84
2022-08-20T01:00:34.148Z,101286.50
2022-08-20T01:03:03.757Z,101284.25
2022-08-20T01:05:31.365Z,101284.94
2022-08-20T01:07:59.362Z,101276.00
2022-08-20T01:10:30.271Z,101281.88
2022-08-20T01:13:00.236Z,101280.84
2022-08-20T01:15:31.721Z,101271.34
2022-08-20T01:18:02.005Z,101265.09
2022-08-20T01:20:34.716Z,101275.06
2022-08-20T01:23:26.608Z,101266.16
2022-08-20T01:26:00.274Z,101266.41
2022-08-20T01:28:33.577Z,101263.13
2022-08-20T01:31:01.153Z,101262.28
2022-08-20T01:33:28.919Z,101264.38
2022-08-20T01:35:56.641Z,101275.16
2022-08-20T01:38:24.609Z,101280.09
2022-08-20T01:41:08.552Z,101273.19
2022-08-20T01:43:37.092Z,101278.13
2022-08-20T01:46:06.020Z,101279.06
2022-08-20T01:48:33.605Z,101281.09
2022-08-20T01:51:07.755Z,101277.09
2022-08-20T01:53:38.445Z,101276.16
2022-08-20T01:56:10.125Z,101273.69
2022-08-20T01:58:41.257Z,101265.84
2022-08-20T02:01:09.465Z,101266.88
2022-08-20T02:03:40.747Z,101269.81
2022-08-20T02:06:11.668Z,101273.78
2022-08-20T02:08:39.296Z,101277.31
2022-08-20T02:11:08.889Z,101275.69
2022-08-20T02:13:36.849Z,101276.47
2022-08-20T02:16:05.989Z,101286.47
2022-08-20T02:18:33.653Z,101286.47
2022-08-20T02:21:01.495Z,101283.53
2022-08-20T02:23:29.150Z,101278.97
2022-08-20T02:25:56.833Z,101284.56
2022-08-20T02:28:25.733Z,101279.44
2022-08-20T02:30:55.240Z,101297.72
2022-08-20T02:33:24.614Z,101299.81
2022-08-20T02:35:53.725Z,101296.75
2022-08-20T02:38:21.432Z,101297.22
2022-08-20T02:40:49.917Z,101297.47
2022-08-20T02:43:20.072Z,101307.22
2022-08-20T02:45:49.006Z,101296.63
2022-08-20T02:48:22.739Z,101307.44
2022-08-20T02:50:53.221Z,101298.50
2022-08-20T02:53:21.421Z,101306.84
2022-08-20T02:55:48.996Z,101302.28
2022-08-20T02:58:16.872Z,101306.59
2022-08-20T03:00:44.836Z,101306.38
2022-08-20T03:03:14.091Z,101303.69
2022-08-20T03:05:43.921Z,101306.13
2022-08-20T03:08:13.434Z,101310.50
2022-08-20T03:10:42.751Z,101306.75
2022-08-20T03:13:12.503Z,101303.22
2022-08-20T03:15:43.005Z,101304.06
2022-08-20T03:18:11.422Z,101298.03
2022-08-20T03:20:42.057Z,101303.22
2022-08-20T03:23:09.773Z,101302.16
2022-08-20T03:25:37.469Z,101309.00
2022-08-20T03:28:05.728Z,101314.13
2022-08-20T03:30:33.600Z,101308.53
2022-08-20T03:33:01.564Z,101308.06
2022-08-20T03:35:32.949Z,101322.13
2022-08-20T03:38:02.342Z,101317.09
2022-08-20T03:40:32.639Z,101312.88
2022-08-20T03:43:01.152Z,101318.88
2022-08-20T03:45:29.787Z,101315.09
2022-08-20T03:47:58.668Z,101310.53
2022-08-20T03:50:29.821Z,101307.84
2022-08-20T03:52:59.493Z,101312.19
2022-08-20T03:55:30.950Z,101308.66
2022-08-20T03:58:02.924Z,101309.50
2022-08-20T04:00:34.684Z,101306.22
2022-08-20T04:03:02.316Z,101305.38
2022-08-20T04:05:32.782Z,101307.25
2022-08-20T04:08:03.414Z,101308.09
2022-08-20T04:10:32.937Z,101305.59
2022-08-20T04:13:00.613Z,101311.00
2022-08-20T04:15:29.245Z,101303.97
2022-08-20T04:17:56.950Z,101301.50
2022-08-20T04:20:26.116Z,101297.38
2022-08-20T04:22:59.157Z,101313.00
2022-08-20T04:25:28.429Z,101304.91
2022-08-20T04:28:00.174Z,101309.09
2022-08-20T04:30:30.572Z,101311.22
2022-08-20T04:32:59.497Z,101316.00
2022-08-20T04:35:27.506Z,101318.94
2022-08-20T04:38:06.404Z,101321.41
2022-08-20T04:40:52.532Z,101327.88
2022-08-20T04:43:23.054Z,101339.47
2022-08-20T04:45:51.902Z,101328.22
2022-08-20T04:48:20.472Z,101333.16
2022-08-20T04:50:48.341Z,101332.47
2022-08-20T04:53:22.711Z,101336.38
2022-08-20T04:55:54.437Z,101354.56
2022-08-20T04:58:27.272Z,101354.66
2022-08-20T05:01:01.184Z,101355.63
2022-08-20T05:03:29.691Z,101367.59
2022-08-20T05:05:57.900Z,101364.81
2022-08-20T05:08:26.808Z,101354.28
2022-08-20T05:11:06.592Z,101364.28
2022-08-20T05:13:45.134Z,101358.63
2022-08-20T05:16:15.105Z,101363.47
2022-08-20T05:18:43.231Z,101359.09
2022-08-20T05:21:10.873Z,101362.00
2022-08-20T05:23:43.174Z,101362.19
2022-08-20T05:26:11.970Z,101356.25
2022-08-20T05:28:57.087Z,101347.63
2022-08-20T05:31:32.692Z,101353.47
2022-08-20T05:34:01.236Z,101344.41
2022-08-20T05:36:28.890Z,101344.31
2022-08-20T05:38:56.470Z,101346.94
2022-08-20T05:41:29.358Z,101345.81
2022-08-20T05:43:59.389Z,101352.00
2022-08-20T05:46:28.369Z,101351.72
2022-08-20T05:48:56.139Z,101351.97
2022-08-20T05:51:27.608Z,101357.41
2022-08-20T05:53:55.300Z,101357.13
2022-08-20T05:56:27.130Z,101355.78
2022-08-20T05:58:54.970Z,101367.69
2022-08-20T06:01:22.733Z,101364.09
2022-08-20T06:04:09.284Z,101365.69
2022-08-20T06:06:45.319Z,101361.94
2022-08-20T06:09:15.043Z,101363.28
2022-08-20T06:11:42.614Z,101348.09
2022-08-20T06:14:10.241Z,101353.84
2022-08-20T06:16:37.925Z,101361.38
2022-08-20T06:19:11.295Z,101370.31
2022-08-20T06:21:39.759Z,101372.75
2022-08-20T06:24:07.872Z,101369.09
2022-08-20T06:26:36.315Z,101364.53
2022-08-20T06:29:05.878Z,101375.28
2022-08-20T06:31:34.908Z,101371.34
2022-08-20T06:34:02.772Z,101371.56
2022-08-20T06:36:31.673Z,101366.38
2022-08-20T06:38:59.255Z,101362.50
2022-08-20T06:41:36.376Z,101365.91
2022-08-20T06:44:05.278Z,101367.66
2022-08-20T06:46:33.043Z,101358.09
2022-08-20T06:49:00.818Z,101368.41
2022-08-20T06:51:29.250Z,101368.66
2022-08-20T06:53:58.713Z,101373.47
2022-08-20T06:56:26.736Z,101373.41
2022-08-20T06:58:54.281Z,101382.47
2022-08-20T07:01:21.879Z,101381.16
2022-08-20T07:03:55.755Z,101376.91
2022-08-20T07:06:25.285Z,101375.34
2022-08-20T07:08:53.052Z,101368.06
2022-08-20T07:11:27.216Z,101377.41
2022-08-20T07:13:56.465Z,101384.63
2022-08-20T07:16:24.077Z,101378.41
2022-08-20T07:18:51.773Z,101375.78
2022-08-20T07:21:19.538Z,101373.09
2022-08-20T07:23:49.341Z,101372.41
2022-08-20T07:26:17.040Z,101384.63
2022-08-20T07:28:46.353Z,101389.06
2022-08-20T07:31:31.642Z,101384.53
2022-08-20T07:34:02.788Z,101388.13
2022-08-20T07:36:31.051Z,101394.19
2022-08-20T07:38:59.761Z,101390.41
2022-08-20T07:41:34.218Z,101393.44
2022-08-20T07:44:03.404Z,101385.72
2022-08-20T07:46:31.651Z,101399.78
2022-08-20T07:48:59.873Z,101403.72
2022-08-20T07:51:28.529Z,101398.22
2022-08-20T07:53:58.118Z,101400.63
2022-08-20T07:56:26.563Z,101394.19
2022-08-20T07:58:59.227Z,101394.25
2022-08-20T08:01:31.648Z,101402.56
2022-08-20T08:04:00.702Z,101403.16
2022-08-20T08:06:31.375Z,101403.66
2022-08-20T08:09:03.937Z,101406.91
2022-08-20T08:11:34.479Z,101414.75
2022-08-20T08:14:03.478Z,101413.00
2022-08-20T08:16:32.798Z,101410.06
2022-08-20T08:19:01.900Z,101415.91
2022-08-20T08:21:30.140Z,101407.16
2022-08-20T08:23:58.228Z,101408.13
2022-08-20T08:26:26.261Z,101419.53
2022-08-20T08:28:53.848Z,101416.34
2022-08-20T08:31:21.425Z,101416.78
2022-08-20T08:33:50.351Z,101423.25
2022-08-20T08:36:18.410Z,101425.81
2022-08-20T08:38:47.074Z,101428.91
2022-08-20T08:41:18.707Z,101425.22
2022-08-20T08:43:48.793Z,101424.78
2022-08-20T08:46:22.608Z,101429.03
2022-08-20T08:48:55.633Z,101427.13
2022-08-20T08:51:29.266Z,101433.56
2022-08-20T08:53:59.589Z,101440.56
2022-08-20T08:56:30.665Z,101437.72
2022-08-20T08:59:02.763Z,101437.13
2022-08-20T09:01:54.416Z,101441.31
2022-08-20T09:04:23.696Z,101445.69
2022-08-20T09:06:53.425Z,101449.00
2022-08-20T09:09:25.650Z,101447.25
2022-08-20T09:11:56.146Z,101450.66
2022-08-20T09:14:25.318Z,101444.97
2022-08-20T09:16:53.717Z,101452.66
2022-08-20T09:19:22.811Z,101454.88
2022-08-20T09:21:50.543Z,101453.41
2022-08-20T09:24:18.393Z,101455.03
2022-08-20T09:26:46.089Z,101459.44
2022-08-20T09:29:13.856Z,101455.25
2022-08-20T09:31:42.634Z,101449.03
2022-08-20T09:34:10.417Z,101461.38
2022-08-20T09:36:39.460Z,101455.69
2022-08-20T09:39:07.059Z,101445.84
2022-08-20T09:41:34.837Z,101441.59
2022-08-20T09:44:02.900Z,101445.22
2022-08-20T09:46:30.493Z,101445.72
2022-08-20T09:48:58.408Z,101447.06
2022-08-20T09:51:26.041Z,101452.84
2022-08-20T09:53:55.877Z,101458.53
2022-08-20T09:56:25.191Z,101460.19
2022-08-20T09:58:56.523Z,101451.53
2022-08-20T10:01:26.670Z,101459.56
2022-08-20T10:03:54.353Z,101459.50
2022-08-20T10:06:22.091Z,101452.16
2022-08-20T10:08:50.491Z,101458.75
2022-08-20T10:11:19.852Z,101455.13
2022-08-20T10:13:48.213Z,101448.19
2022-08-20T10:16:15.821Z,101453.63
2022-08-20T10:18:43.410Z,101459.44
2022-08-20T10:21:12.405Z,101452.47
2022-08-20T10:23:40.086Z,101459.09
2022-08-20T10:26:08.529Z,101453.31
2022-08-20T10:28:37.896Z,101452.16
2022-08-20T10:31:07.168Z,101448.66
2022-08-20T10:33:35.756Z,101450.47
2022-08-20T10:36:07.637Z,101456.66
2022-08-20T10:38:35.225Z,101459.97
2022-08-20T10:41:02.812Z,101465.13
2022-08-20T10:43:30.563Z,101457.47
2022-08-20T10:45:59.557Z,101472.16
2022-08-20T10:48:27.596Z,101468.81
2022-08-20T10:50:55.265Z,101468.31
2022-08-20T10:53:22.905Z,101466.06
2022-08-20T10:55:50.520Z,101462.63
2022-08-20T10:58:18.986Z,101469.53
2022-08-20T11:00:50.801Z,101461.44
2022-08-20T11:03:20.120Z,101464.13
2022-08-20T11:05:47.768Z,101469.81
2022-08-20T11:08:15.395Z,101471.22
2022-08-20T11:11:01.589Z,101476.69
2022-08-20T11:13:29.185Z,101480.59
2022-08-20T11:15:56.821Z,101474.13
2022-08-20T11:18:25.906Z,101465.53
2022-08-20T11:20:53.760Z,101467.84
2022-08-20T11:23:21.340Z,101477.28
2022-08-20T11:25:49.676Z,101472.38
2022-08-20T11:28:17.343Z,101480.25
2022-08-20T11:30:59.011Z,101476.22
2022-08-20T11:33:28.080Z,101476.84
2022-08-20T11:35:55.649Z,101484.00
2022-08-20T11:38:23.266Z,101480.16
2022-08-20T11:40:50.872Z,101483.13
2022-08-20T11:43:18.696Z,101483.66
2022-08-20T11:45:48.534Z,101484.44
2022-08-20T11:48:16.771Z,101491.22
2022-08-20T11:50:46.873Z,101496.97
2022-08-20T11:53:14.922Z,101493.81
2022-08-20T11:55:43.243Z,101488.06
2022-08-20T11:58:11.503Z,101488.06
2022-08-20T12:00:39.316Z,101481.47
2022-08-20T12:03:10.265Z,101487.19
2022-08-20T12:05:39.553Z,101478.63
2022-08-20T12:08:09.533Z,101477.41
2022-08-20T12:10:37.908Z,101468.25
2022-08-20T12:13:06.220Z,101472.81
2022-08-20T12:15:33.980Z,101468.44
2022-08-20T12:18:02.126Z,101474.69
2022-08-20T12:20:29.777Z,101467.16
2022-08-20T12:22:58.901Z,101471.28
2022-08-20T12:25:28.019Z,101464.47
2022-08-20T12:27:55.695Z,101474.28
2022-08-20T12:30:25.543Z,101484.16
2022-08-20T12:32:53.520Z,101480.31
2022-08-20T12:35:21.325Z,101470.41
2022-08-20T12:37:48.981Z,101478.44
2022-08-20T12:40:30.541Z,101480.22
2022-08-20T12:43:01.840Z,101486.97
2022-08-20T12:45:29.845Z,101477.50
2022-08-20T12:48:03.035Z,101468.88
2022-08-20T12:50:31.847Z,101470.97
2022-08-20T12:53:00.445Z,101471.44
2022-08-20T12:55:28.853Z,101480.34
2022-08-20T12:57:59.238Z,101479.59
2022-08-20T13:00:30.565Z,101478.19
2022-08-20T13:03:01.531Z,101483.53
2022-08-20T13:05:30.134Z,101490.03
2022-08-20T13:07:58.458Z,101485.44
2022-08-20T13:10:29.513Z,101480.97
2022-08-20T13:12:57.907Z,101487.13
2022-08-20T13:15:26.572Z,101482.34
2022-08-20T13:17:57.636Z,101474.72
2022-08-20T13:20:34.076Z,101480.28
2022-08-20T13:23:02.840Z,101491.66
2022-08-20T13:25:30.464Z,101491.03
2022-08-20T13:27:59.157Z,101485.22
2022-08-20T13:30:27.049Z,101483.13
2022-08-20T13:32:56.360Z,101484.00
2022-08-20T13:35:24.174Z,101479.81
2022-08-20T13:37:51.891Z,101477.81
2022-08-20T13:40:20.015Z,101485.81
2022-08-20T13:42:47.673Z,101494.25
2022-08-20T13:45:15.724Z,101489.41
2022-08-20T13:47:44.409Z,101484.44
2022-08-20T13:50:16.112Z,101484.13
2022-08-20T13:52:44.470Z,101485.94
2022-08-20T13:55:16.941Z,101486.06
2022-08-20T13:57:45.396Z,101481.97
2022-08-20T14:00:16.686Z,101478.97
2022-08-20T14:02:45.271Z,101477.69
2022-08-20T14:05:18.417Z,101482.88
2022-08-20T14:07:48.019Z,101492.72
2022-08-20T14:10:18.447Z,101496.47
2022-08-20T14:12:48.167Z,101493.84
2022-08-20T14:15:15.922Z,101491.03
2022-08-20T14:17:50.287Z,101500.50
2022-08-20T14:20:22.140Z,101490.75
2022-08-20T14:22:49.756Z,101492.41
2022-08-20T14:25:19.701Z,101504.16
2022-08-20T14:27:47.378Z,101495.41
2022-08-20T14:30:22.452Z,101496.16
2022-08-20T14:32:50.152Z,101493.72
2022-08-20T14:35:19.356Z,101500.16
2022-08-20T14:37:49.416Z,101505.03
2022-08-20T14:40:18.565Z,101509.63
2022-08-20T14:42:51.630Z,101516.06
2022-08-20T14:45:23.214Z,101513.88
2022-08-20T14:47:54.175Z,101516.50
2022-08-20T14:50:26.684Z,101522.72
2022-08-20T14:52:54.970Z,101521.84
2022-08-20T14:55:24.705Z,101520.53
2022-08-20T14:57:52.423Z,101518.78
2022-08-20T15:00:23.245Z,101520.78
2022-08-20T15:02:50.913Z,101526.28
2022-08-20T15:05:18.757Z,101532.13
2022-08-20T15:07:51.789Z,101531.53
2022-08-20T15:10:25.698Z,101522.59
2022-08-20T15:12:53.364Z,101520.97
2022-08-20T15:15:22.381Z,101526.13
2022-08-20T15:17:53.256Z,101531.88
2022-08-20T15:20:23.648Z,101534.03
2022-08-20T15:22:52.669Z,101526.97
2022-08-20T15:25:23.326Z,101515.81
2022-08-20T15:27:51.553Z,101520.44
2022-08-20T15:30:21.615Z,101527.22
2022-08-20T15:32:54.587Z,101532.34
2022-08-20T15:35:25.713Z,101530.81
2022-08-20T15:37:56.927Z,101532.47
2022-08-20T15:40:28.543Z,101534.75
2022-08-20T15:42:56.481Z,101539.44
2022-08-20T15:45:24.176Z,101533.84
2022-08-20T15:47:55.374Z,101532.00
2022-08-20T15:50:45.280Z,101534.56
2022-08-20T15:53:18.769Z,101539.00
2022-08-20T15:55:56.993Z,101535.63
2022-08-20T15:58:32.426Z,101540.44
2022-08-20T16:01:24.611Z,101537.47
2022-08-20T16:04:10.033Z,101544.56
2022-08-20T16:06:37.889Z,101550.50
2022-08-20T16:09:28.772Z,101542.03
2022-08-20T16:12:03.417Z,101553.44
2022-08-20T16:14:37.661Z,101556.28
2022-08-20T16:17:09.767Z,101565.72
2022-08-20T16:19:51.249Z,101565.59
2022-08-20T16:22:20.244Z,101564.56
2022-08-20T16:24:49.797Z,101566.97
2022-08-20T16:27:28.629Z,101575.19
2022-08-20T16:30:02.603Z,101566.69
2022-08-20T16:32:38.507Z,101575.94
2022-08-20T16:35:26.288Z,101575.59
2022-08-20T16:38:03.513Z,101574.59
2022-08-20T16:40:39.132Z,101578.84
2022-08-20T16:43:09.881Z,101585.84
2022-08-20T16:45:50.132Z,101590.69
2022-08-20T16:48:19.830Z,101579.28
2022-08-20T16:51:02.528Z,101593.59
2022-08-20T16:53:30.237Z,101586.44
2022-08-20T16:55:59.180Z,101591.78
2022-08-20T16:58:26.837Z,101595.41
2022-08-20T17:01:07.344Z,101594.47
2022-08-20T17:03:39.673Z,101593.81
2022-08-20T17:06:17.108Z,101601.28
2022-08-20T17:08:49.897Z,101598.56
2022-08-20T17:11:25.152Z,101593.31
2022-08-20T17:14:07.958Z,101605.88
2022-08-20T17:16:40.054Z,101610.19
2022-08-20T17:19:11.968Z,101597.94
2022-08-20T17:21:40.730Z,101605.81
2022-08-20T17:24:16.877Z,101606.56
2022-08-20T17:26:49.237Z,101603.66
2022-08-20T17:29:20.103Z,101611.16
2022-08-20T17:31:51.305Z,101613.38
2022-08-20T17:34:21.784Z,101612.81
2022-08-20T17:36:53.842Z,101612.41
2022-08-20T17:39:24.609Z,101610.91
2022-08-20T17:41:56.059Z,101614.06
2022-08-20T17:44:29.104Z,101616.47
2022-08-20T17:46:58.376Z,101614.00
2022-08-20T17:49:35.188Z,101614.34
2022-08-20T17:52:10.641Z,101623.53
2022-08-20T17:54:42.278Z,101620.16
2022-08-20T17:57:14.480Z,101620.84
2022-08-20T17:59:59.973Z,101624.34
2022-08-20T18:02:30.736Z,101630.16
2022-08-20T18:04:58.354Z,101630.00
2022-08-20T18:07:31.824Z,101628.63
2022-08-20T18:10:03.489Z,101631.81
2022-08-20T18:12:40.960Z,101638.44
2022-08-20T18:15:13.701Z,101641.88
2022-08-20T18:18:01.622Z,101635.31
2022-08-20T18:20:49.440Z,101634.00
2022-08-20T18:23:21.649Z,101630.25
2022-08-20T18:25:53.934Z,101636.47
2022-08-20T18:28:27.693Z,101637.06
2022-08-20T18:30:58.352Z,101634.63
2022-08-20T18:33:29.509Z,101640.25
2022-08-20T18:36:11.993Z,101633.69
2022-08-20T18:38:42.159Z,101642.84
2022-08-20T18:41:14.257Z,101636.88
2022-08-20T18:43:44.188Z,101640.41
2022-08-20T18:46:23.634Z,101641.34
2022-08-20T18:48:54.281Z,101644.50
2022-08-20T18:51:30.936Z,101647.53
2022-08-20T18:53:59.190Z,101639.06
2022-08-20T18:56:40.257Z,101641.28
2022-08-20T18:59:15.869Z,101637.25
2022-08-20T19:01:48.530Z,101639.47
2022-08-20T19:04:29.754Z,101637.56
2022-08-20T19:07:01.536Z,101639.56
2022-08-20T19:10:01.361Z,101633.66
2022-08-20T19:13:03.210Z,101638.81
2022-08-20T19:15:34.389Z,101644.75
2022-08-20T19:18:07.972Z,101641.09
2022-08-20T19:20:38.605Z,101639.31
2022-08-20T19:23:08.924Z,101642.09
2022-08-20T19:25:41.652Z,101636.75
2022-08-20T19:28:20.321Z,101643.06
2022-08-20T19:30:50.184Z,101629.84
2022-08-20T19:33:27.513Z,101636.75
2022-08-20T19:36:08.178Z,101636.03
2022-08-20T19:38:36.001Z,101642.34
2022-08-20T19:41:11.234Z,101632.44
2022-08-20T19:43:43.824Z,101636.81
2022-08-20T19:46:16.230Z,101637.72
2022-08-20T19:48:53.789Z,101637.81
2022-08-20T19:51:28.518Z,101634.16
2022-08-20T19:53:56.121Z,101632.09
2022-08-20T19:56:25.929Z,101638.97
2022-08-20T19:59:01.661Z,101636.97
2022-08-20T20:01:30.717Z,101630.59
2022-08-20T20:04:00.965Z,101627.28
2022-08-20T20:06:29.444Z,101629.59
2022-08-20T20:08:59.970Z,101629.81
2022-08-20T20:11:33.763Z,101620.75
2022-08-20T20:14:03.789Z,101616.81
2022-08-20T20:16:33.929Z,101618.78
2022-08-20T20:19:25.195Z,101622.31
2022-08-20T20:21:52.821Z,101620.31
2022-08-20T20:24:25.329Z,101623.09
2022-08-20T20:26:53.998Z,101621.47
2022-08-20T20:29:28.151Z,101620.72
2022-08-20T20:32:00.072Z,101623.66
2022-08-20T20:34:30.034Z,101625.38
2022-08-20T20:37:09.580Z,101626.22
2022-08-20T20:39:41.521Z,101625.03
2022-08-20T20:42:12.736Z,101627.13
2022-08-20T20:44:43.192Z,101632.34
2022-08-20T20:47:21.492Z,101635.91
2022-08-20T20:49:52.607Z,101635.94
2022-08-20T20:52:23.317Z,101625.22
2022-08-20T20:54:52.748Z,101624.38
2022-08-20T20:57:37.757Z,101637.03
2022-08-20T21:00:11.347Z,101641.41
2022-08-20T21:02:40.501Z,101632.53
2022-08-20T21:05:08.597Z,101629.66
2022-08-20T21:07:44.865Z,101635.69
2022-08-20T21:10:19.564Z,101631.34
2022-08-20T21:12:50.547Z,101635.50
2022-08-20T21:15:21.150Z,101633.25
2022-08-20T21:17:50.056Z,101630.34
2022-08-20T21:20:17.999Z,101630.97
2022-08-20T21:22:45.643Z,101624.34
2022-08-20T21:25:13.533Z,101629.31
2022-08-20T21:27:44.965Z,101626.03
2022-08-20T21:30:13.704Z,101629.13
2022-08-20T21:32:41.322Z,101619.81
2022-08-20T21:35:11.135Z,101622.94
2022-08-20T21:37:38.889Z,101627.09
2022-08-20T21:40:08.831Z,101637.44
2022-08-20T21:42:37.240Z,101633.50
2022-08-20T21:45:07.149Z,101633.31
2022-08-20T21:47:34.748Z,101627.50
2022-08-20T21:50:02.549Z,101626.69
2022-08-20T21:52:31.699Z,101627.53
2022-08-20T21:54:59.261Z,101620.03
2022-08-20T21:57:29.689Z,101628.75
2022-08-20T21:59:58.394Z,101626.66
2022-08-20T22:02:27.009Z,101624.38
2022-08-20T22:04:54.914Z,101621.91
2022-08-20T22:07:22.836Z,101618.41
2022-08-20T22:09:51.756Z,101614.03
2022-08-20T22:12:22.797Z,101613.63
2022-08-20T22:14:50.578Z,101605.97
2022-08-20T22:17:18.177Z,101608.88
2022-08-20T22:19:45.910Z,101605.56
2022-08-20T22:22:14.536Z,101611.75
2022-08-20T22:24:42.769Z,101615.69
2022-08-20T22:27:11.648Z,101614.25
2022-08-20T22:29:39.325Z,101616.31
2022-08-20T22:32:07.426Z,101619.59
2022-08-20T22:34:36.657Z,101620.22
2022-08-20T22:37:05.240Z,101610.91
2022-08-20T22:39:33.092Z,101617.72
2022-08-20T22:42:00.809Z,101612.13
2022-08-20T22:44:29.786Z,101621.63
2022-08-20T22:47:02.160Z,101619.34
2022-08-20T22:49:33.064Z,101619.13
2022-08-20T22:52:01.308Z,101616.00
2022-08-20T22:54:30.193Z,101617.66
2022-08-20T22:56:57.817Z,101611.47
2022-08-20T22:59:25.822Z,101605.00
2022-08-20T23:01:55.922Z,101609.97
2022-08-20T23:04:27.785Z,101606.88
2022-08-20T23:06:56.231Z,101612.00
2022-08-20T23:09:23.965Z,101608.25
2022-08-20T23:11:52.731Z,101602.50
2022-08-20T23:14:20.741Z,101614.59
2022-08-20T23:16:52.685Z,101610.03
2022-08-20T23:19:23.641Z,101607.53
2022-08-20T23:21:52.418Z,101609.97
2022-08-20T23:24:20.881Z,101610.75
2022-08-20T23:26:53.285Z,101611.34
2022-08-20T23:29:25.113Z,101603.28
2022-08-20T23:31:54.349Z,101605.72
2022-08-20T23:34:23.343Z,101610.81
2022-08-20T23:36:52.346Z,101609.38
2022-08-20T23:39:20.476Z,101599.88
2022-08-20T23:41:48.302Z,101596.19
2022-08-20T23:44:25.840Z,101598.03
2022-08-20T23:46:56.449Z,101587.31
2022-08-20T23:49:25.480Z,101587.69
2022-08-20T23:51:53.085Z,101585.84
2022-08-20T23:54:20.657Z,101582.34
2022-08-20T23:56:48.440Z,101581.72
2022-08-20T23:59:16.005Z,101584.56
